createdAt,value
2018-02-21T00:01:04.951Z,-2.34
2018-02-21T00:03:35.730Z,-2.29
2018-02-21T00:06:06.542Z,-2.29
2018-02-21T00:08:37.373Z,-2.25
2018-02-21T00:11:09.241Z,-2.34
2018-02-21T00:13:40.055Z,-2.41
2018-02-21T00:16:10.887Z,-2.46
2018-02-21T00:18:41.714Z,-2.59
2018-02-21T00:21:12.559Z,-2.68
2018-02-21T00:23:43.351Z,-2.54
2018-02-21T00:26:14.175Z,-2.64
2018-02-21T00:28:44.992Z,-2.46
2018-02-21T00:31:15.866Z,-2.60
2018-02-21T00:33:46.699Z,-2.68
2018-02-21T00:36:17.507Z,-2.72
2018-02-21T00:38:48.335Z,-2.74
2018-02-21T00:41:19.152Z,-2.61
2018-02-21T00:43:49.920Z,-2.58
2018-02-21T00:46:20.745Z,-2.58
2018-02-21T00:48:51.517Z,-2.59
2018-02-21T00:51:22.347Z,-2.67
2018-02-21T00:53:53.250Z,-2.74
2018-02-21T00:56:24.120Z,-2.75
2018-02-21T00:58:54.922Z,-2.71
2018-02-21T01:01:25.765Z,-2.66
2018-02-21T01:03:56.573Z,-2.66
2018-02-21T01:06:27.420Z,-2.65
2018-02-21T01:08:58.254Z,-2.58
2018-02-21T01:11:29.088Z,-2.66
2018-02-21T01:13:59.894Z,-2.72
2018-02-21T01:16:30.730Z,-2.84
2018-02-21T01:19:01.524Z,-2.88
2018-02-21T01:21:32.349Z,-2.76
2018-02-21T01:24:03.182Z,-2.77
2018-02-21T01:26:34.004Z,-2.84
2018-02-21T01:29:04.824Z,-2.88
2018-02-21T01:31:35.654Z,-2.98
2018-02-21T01:34:06.530Z,-2.83
2018-02-21T01:36:37.403Z,-2.79
2018-02-21T01:39:08.213Z,-2.86
2018-02-21T01:41:39.052Z,-2.88
2018-02-21T01:44:09.851Z,-2.74
2018-02-21T01:46:40.714Z,-2.66
2018-02-21T01:49:11.514Z,-2.71
2018-02-21T01:51:42.317Z,-2.77
2018-02-21T01:54:13.146Z,-2.72
2018-02-21T01:56:44.006Z,-2.44
2018-02-21T01:59:14.809Z,-2.33
2018-02-21T02:01:46.451Z,-2.18
2018-02-21T02:04:17.289Z,-2.06
2018-02-21T02:06:48.121Z,-2.04
2018-02-21T02:09:18.934Z,-2.03
2018-02-21T02:11:49.779Z,-1.98
2018-02-21T02:14:20.584Z,-1.97
2018-02-21T02:16:51.405Z,-1.88
2018-02-21T02:19:22.225Z,-1.86
2018-02-21T02:21:53.114Z,-1.89
2018-02-21T02:24:23.960Z,-1.88
2018-02-21T02:26:54.860Z,-1.84
2018-02-21T02:29:25.679Z,-1.83
2018-02-21T02:31:56.513Z,-1.87
2018-02-21T02:34:27.319Z,-1.80
2018-02-21T02:36:58.197Z,-1.76
2018-02-21T02:39:41.254Z,-1.75
2018-02-21T02:42:12.053Z,-1.73
2018-02-21T02:44:42.862Z,-1.72
2018-02-21T02:47:13.747Z,-1.73
2018-02-21T02:49:44.555Z,-1.75
2018-02-21T02:52:15.388Z,-1.76
2018-02-21T02:54:46.205Z,-1.74
2018-02-21T02:57:17.033Z,-1.76
2018-02-21T02:59:47.857Z,-1.75
2018-02-21T03:02:18.669Z,-1.70
2018-02-21T03:04:49.503Z,-1.72
2018-02-21T03:07:20.348Z,-1.68
2018-02-21T03:09:51.177Z,-1.66
2018-02-21T03:12:22.025Z,-1.76
2018-02-21T03:14:52.869Z,-1.77
2018-02-21T03:17:23.698Z,-1.76
2018-02-21T03:19:54.538Z,-1.79
2018-02-21T03:22:25.371Z,-1.76
2018-02-21T03:24:56.198Z,-1.81
2018-02-21T03:27:27.061Z,-1.82
2018-02-21T03:29:57.902Z,-1.80
2018-02-21T03:32:28.770Z,-1.81
2018-02-21T03:34:59.597Z,-1.83
2018-02-21T03:37:30.450Z,-1.91
2018-02-21T03:40:01.250Z,-1.94
2018-02-21T03:42:32.096Z,-1.87
2018-02-21T03:45:02.930Z,-1.83
2018-02-21T03:47:33.782Z,-1.96
2018-02-21T03:50:04.644Z,-1.95
2018-02-21T03:52:35.757Z,-1.99
2018-02-21T03:55:06.566Z,-1.99
2018-02-21T03:57:37.377Z,-2.01
2018-02-21T04:00:08.178Z,-1.97
2018-02-21T04:02:39.298Z,-2.12
2018-02-21T04:05:10.542Z,-2.21
2018-02-21T04:07:41.407Z,-2.23
2018-02-21T04:10:12.242Z,-2.28
2018-02-21T04:12:43.081Z,-2.38
2018-02-21T04:15:13.910Z,-2.29
2018-02-21T04:17:44.808Z,-2.41
2018-02-21T04:20:15.644Z,-2.48
2018-02-21T04:22:46.477Z,-2.48
2018-02-21T04:25:17.289Z,-2.46
2018-02-21T04:27:48.416Z,-2.55
2018-02-21T04:30:19.214Z,-2.47
2018-02-21T04:32:52.004Z,-2.53
2018-02-21T04:35:22.828Z,-2.44
2018-02-21T04:37:53.670Z,-2.43
2018-02-21T04:40:24.479Z,-2.45
2018-02-21T04:42:55.292Z,-2.50
2018-02-21T04:45:26.136Z,-2.50
2018-02-21T04:47:56.994Z,-2.54
2018-02-21T04:50:27.837Z,-2.73
2018-02-21T04:52:58.698Z,-2.73
2018-02-21T04:55:31.471Z,-2.73
2018-02-21T04:58:08.315Z,-2.62
2018-02-21T05:00:39.398Z,-2.61
2018-02-21T05:03:10.204Z,-2.67
2018-02-21T05:05:41.090Z,-2.73
2018-02-21T05:08:12.302Z,-2.60
2018-02-21T05:10:43.143Z,-2.56
2018-02-21T05:13:13.989Z,-2.54
2018-02-21T05:15:44.821Z,-2.46
2018-02-21T05:18:15.942Z,-2.36
2018-02-21T05:20:46.732Z,-2.39
2018-02-21T05:23:17.547Z,-2.33
2018-02-21T05:25:48.324Z,-2.22
2018-02-21T05:28:19.166Z,-2.20
2018-02-21T05:30:50.675Z,-2.45
2018-02-21T05:33:21.499Z,-2.29
2018-02-21T05:35:52.343Z,-2.38
2018-02-21T05:38:23.174Z,-2.39
2018-02-21T05:40:54.000Z,-2.54
2018-02-21T05:43:25.161Z,-2.54
2018-02-21T05:45:55.943Z,-2.62
2018-02-21T05:48:26.795Z,-2.60
2018-02-21T05:50:57.575Z,-2.67
2018-02-21T05:53:28.410Z,-2.76
2018-02-21T05:55:59.250Z,-2.75
2018-02-21T05:58:30.110Z,-2.59
2018-02-21T06:01:01.446Z,-2.69
2018-02-21T06:03:32.286Z,-2.73
2018-02-21T06:06:03.084Z,-2.67
2018-02-21T06:08:33.915Z,-2.70
2018-02-21T06:11:04.685Z,-2.66
2018-02-21T06:13:35.469Z,-2.69
2018-02-21T06:16:06.248Z,-2.73
2018-02-21T06:18:37.068Z,-2.69
2018-02-21T06:21:07.825Z,-2.74
2018-02-21T06:23:38.613Z,-2.80
2018-02-21T06:26:09.412Z,-2.79
2018-02-21T06:28:40.204Z,-2.77
2018-02-21T06:31:10.994Z,-2.80
2018-02-21T06:33:41.760Z,-2.80
2018-02-21T06:36:12.539Z,-2.76
2018-02-21T06:38:43.540Z,-2.69
2018-02-21T06:41:15.343Z,-2.74
2018-02-21T06:43:46.129Z,-2.62
2018-02-21T06:46:16.897Z,-2.58
2018-02-21T06:48:47.742Z,-2.60
2018-02-21T06:51:18.614Z,-2.58
2018-02-21T06:53:49.456Z,-2.52
2018-02-21T06:56:21.289Z,-2.42
2018-02-21T06:58:52.076Z,-2.34
2018-02-21T07:01:22.836Z,-2.26
2018-02-21T07:03:53.613Z,-2.16
2018-02-21T07:06:24.375Z,-2.14
2018-02-21T07:08:56.208Z,-2.06
2018-02-21T07:11:26.960Z,-1.88
2018-02-21T07:13:57.754Z,-1.97
2018-02-21T07:16:28.498Z,-1.98
2018-02-21T07:18:59.343Z,-1.78
2018-02-21T07:21:30.088Z,-1.76
2018-02-21T07:24:00.836Z,-1.72
2018-02-21T07:26:31.592Z,-1.64
2018-02-21T07:29:02.348Z,-1.64
2018-02-21T07:31:33.097Z,-1.72
2018-02-21T07:34:03.861Z,-1.87
2018-02-21T07:36:34.588Z,-1.92
2018-02-21T07:39:05.364Z,-1.93
2018-02-21T07:41:36.316Z,-1.83
2018-02-21T07:44:07.145Z,-1.83
2018-02-21T07:46:38.079Z,-1.91
2018-02-21T07:49:09.079Z,-1.95
2018-02-21T07:51:40.046Z,-1.72
2018-02-21T07:54:11.064Z,-1.74
2018-02-21T07:56:42.021Z,-1.69
2018-02-21T07:59:13.028Z,-1.46
2018-02-21T08:01:43.992Z,-1.43
2018-02-21T08:04:16.004Z,-1.03
2018-02-21T08:06:46.966Z,-0.81
2018-02-21T08:09:18.033Z,-0.57
2018-02-21T08:11:48.966Z,-0.61
2018-02-21T08:14:19.934Z,-0.53
2018-02-21T08:16:51.927Z,-0.50
2018-02-21T08:19:22.977Z,-0.33
2018-02-21T08:21:53.961Z,-0.24
2018-02-21T08:24:24.954Z,-0.27
2018-02-21T08:26:56.250Z,-0.35
2018-02-21T08:29:27.242Z,-0.37
2018-02-21T08:31:58.187Z,-0.27
2018-02-21T08:34:29.167Z,-0.32
2018-02-21T08:36:59.930Z,-0.04
2018-02-21T08:39:30.895Z,-0.29
2018-02-21T08:42:01.837Z,-0.25
2018-02-21T08:44:32.826Z,-0.29
2018-02-21T08:47:03.796Z,0.23
2018-02-21T08:49:34.777Z,0.45
2018-02-21T08:52:06.861Z,0.21
2018-02-21T08:54:37.851Z,0.06
2018-02-21T08:57:08.820Z,0.16
2018-02-21T08:59:39.783Z,0.01
2018-02-21T09:02:11.799Z,0.13
2018-02-21T09:04:42.836Z,-0.18
2018-02-21T09:07:13.830Z,-0.10
2018-02-21T09:09:44.876Z,0.25
2018-02-21T09:12:15.862Z,0.51
2018-02-21T09:14:46.828Z,0.47
2018-02-21T09:17:17.797Z,0.80
2018-02-21T09:19:48.801Z,0.75
2018-02-21T09:22:19.808Z,0.76
2018-02-21T09:24:55.349Z,0.60
2018-02-21T09:27:26.389Z,0.89
2018-02-21T09:29:57.364Z,1.19
2018-02-21T09:32:28.327Z,1.14
2018-02-21T09:34:59.297Z,1.21
2018-02-21T09:37:42.828Z,1.39
2018-02-21T09:40:13.935Z,1.50
2018-02-21T09:42:45.007Z,1.29
2018-02-21T09:45:15.995Z,1.18
2018-02-21T09:47:46.966Z,1.34
2018-02-21T09:50:17.920Z,1.71
2018-02-21T09:52:48.880Z,1.71
2018-02-21T09:55:23.652Z,1.78
2018-02-21T09:57:54.613Z,1.78
2018-02-21T10:00:25.600Z,2.04
2018-02-21T10:02:57.352Z,1.92
2018-02-21T10:05:28.376Z,1.93
2018-02-21T10:07:59.417Z,2.09
2018-02-21T10:10:30.431Z,1.86
2018-02-21T10:13:01.397Z,1.99
2018-02-21T10:15:32.382Z,1.97
2018-02-21T10:18:03.325Z,1.91
2018-02-21T10:20:34.335Z,1.94
2018-02-21T10:23:05.252Z,2.26
2018-02-21T10:25:36.237Z,2.30
2018-02-21T10:28:15.309Z,2.25
2018-02-21T10:30:46.301Z,2.18
2018-02-21T10:33:17.258Z,2.56
2018-02-21T10:35:48.237Z,2.80
2018-02-21T10:38:19.243Z,2.80
2018-02-21T10:40:50.262Z,2.99
2018-02-21T10:43:21.202Z,2.99
2018-02-21T10:46:03.768Z,2.59
2018-02-21T10:48:40.305Z,2.61
2018-02-21T10:51:11.102Z,2.68
2018-02-21T10:53:41.857Z,2.50
2018-02-21T10:56:12.653Z,2.59
2018-02-21T10:58:44.429Z,2.49
2018-02-21T11:01:21.225Z,2.66
2018-02-21T11:03:51.969Z,2.75
2018-02-21T11:06:22.740Z,2.68
2018-02-21T11:08:53.492Z,2.87
2018-02-21T11:11:24.273Z,2.93
2018-02-21T11:13:55.044Z,3.05
2018-02-21T11:16:25.817Z,2.92
2018-02-21T11:24:56.085Z,3.12
2018-02-21T11:27:26.893Z,3.17
2018-02-21T11:30:04.104Z,3.11
2018-02-21T11:32:41.678Z,3.07
2018-02-21T11:35:16.013Z,2.98
2018-02-21T11:37:46.813Z,3.25
2018-02-21T11:40:21.410Z,3.37
2018-02-21T11:48:57.710Z,3.10
2018-02-21T11:51:28.562Z,3.35
2018-02-21T11:53:59.435Z,3.17
2018-02-21T11:56:30.268Z,3.28
2018-02-21T11:59:01.085Z,3.48
2018-02-21T12:01:31.866Z,3.44
2018-02-21T12:04:02.714Z,3.62
2018-02-21T12:06:33.519Z,3.54
2018-02-21T12:09:04.329Z,3.51
2018-02-21T12:11:35.147Z,3.66
2018-02-21T12:14:06.024Z,3.09
2018-02-21T12:16:36.819Z,3.30
2018-02-21T12:19:07.694Z,3.34
2018-02-21T12:21:38.523Z,3.51
2018-02-21T12:24:09.330Z,3.59
2018-02-21T12:26:40.171Z,3.95
2018-02-21T12:29:11.938Z,3.66
2018-02-21T12:31:44.956Z,3.54
2018-02-21T12:34:15.773Z,3.70
2018-02-21T12:36:46.624Z,3.82
2018-02-21T12:39:23.557Z,3.84
2018-02-21T12:41:54.440Z,3.83
2018-02-21T12:44:25.280Z,4.02
2018-02-21T12:46:56.144Z,4.31
2018-02-21T12:49:27.009Z,4.54
2018-02-21T12:51:57.852Z,4.40
2018-02-21T12:54:28.725Z,4.26
2018-02-21T12:56:59.566Z,4.20
2018-02-21T12:59:30.448Z,4.41
2018-02-21T13:02:01.257Z,4.47
2018-02-21T13:04:32.186Z,3.99
2018-02-21T13:07:02.994Z,4.05
2018-02-21T13:09:33.913Z,4.04
2018-02-21T13:12:04.746Z,4.02
2018-02-21T13:14:35.617Z,4.14
2018-02-21T13:17:06.457Z,4.08
2018-02-21T13:19:37.306Z,4.14
2018-02-21T13:22:08.268Z,4.03
2018-02-21T13:24:39.108Z,4.10
2018-02-21T13:27:09.957Z,4.33
2018-02-21T13:29:40.970Z,4.05
2018-02-21T13:32:11.798Z,4.01
2018-02-21T13:34:42.764Z,4.03
2018-02-21T13:37:13.721Z,4.24
2018-02-21T13:39:45.358Z,4.11
2018-02-21T13:42:16.203Z,4.06
2018-02-21T13:44:47.162Z,3.93
2018-02-21T13:47:18.128Z,3.88
2018-02-21T13:49:49.041Z,4.24
2018-02-21T13:52:20.596Z,4.27
2018-02-21T13:54:51.431Z,4.30
2018-02-21T13:57:22.331Z,4.31
2018-02-21T13:59:53.198Z,4.80
2018-02-21T14:02:24.039Z,4.99
2018-02-21T14:04:55.964Z,5.85
2018-02-21T14:07:26.873Z,6.16
2018-02-21T14:09:57.845Z,6.29
2018-02-21T14:12:28.789Z,6.16
2018-02-21T14:14:59.724Z,6.08
2018-02-21T14:17:30.586Z,6.04
2018-02-21T14:20:01.498Z,6.06
2018-02-21T14:22:32.369Z,6.20
2018-02-21T14:25:03.243Z,6.30
2018-02-21T14:27:34.177Z,6.19
2018-02-21T14:30:05.054Z,5.84
2018-02-21T14:32:35.912Z,6.37
2018-02-21T14:35:06.752Z,6.33
2018-02-21T14:37:37.590Z,6.31
2018-02-21T14:40:08.465Z,6.73
2018-02-21T14:42:39.517Z,7.09
2018-02-21T14:45:10.422Z,6.35
2018-02-21T14:47:41.409Z,5.71
2018-02-21T14:50:12.358Z,5.20
2018-02-21T14:52:43.245Z,4.83
2018-02-21T14:55:14.094Z,4.75
2018-02-21T14:57:44.985Z,4.57
2018-02-21T15:00:15.971Z,4.10
2018-02-21T15:02:46.950Z,3.82
2018-02-21T15:05:17.845Z,3.98
2018-02-21T15:07:48.707Z,3.77
2018-02-21T15:10:19.657Z,3.39
2018-02-21T15:12:50.500Z,3.37
2018-02-21T15:15:21.359Z,3.28
2018-02-21T15:17:52.195Z,3.30
2018-02-21T15:20:23.087Z,3.46
2018-02-21T15:22:54.010Z,3.56
2018-02-21T15:25:24.894Z,3.64
2018-02-21T15:27:55.698Z,3.67
2018-02-21T15:30:26.665Z,3.86
2018-02-21T15:32:57.459Z,3.95
2018-02-21T15:35:28.295Z,3.54
2018-02-21T15:37:59.197Z,3.46
2018-02-21T15:40:30.142Z,3.56
2018-02-21T15:43:01.010Z,3.62
2018-02-21T15:45:31.886Z,3.40
2018-02-21T15:48:02.756Z,3.16
2018-02-21T15:50:33.582Z,2.99
2018-02-21T15:53:04.462Z,3.03
2018-02-21T15:55:35.346Z,3.04
2018-02-21T15:58:06.205Z,3.04
2018-02-21T16:00:37.067Z,2.88
2018-02-21T16:03:07.919Z,2.62
2018-02-21T16:05:38.756Z,2.54
2018-02-21T16:08:09.607Z,2.45
2018-02-21T16:10:40.475Z,2.35
2018-02-21T16:13:11.306Z,2.20
2018-02-21T16:15:42.217Z,2.12
2018-02-21T16:18:16.346Z,2.11
2018-02-21T16:20:47.320Z,2.07
2018-02-21T16:23:18.225Z,1.94
2018-02-21T16:25:49.090Z,1.75
2018-02-21T16:28:19.998Z,1.52
2018-02-21T16:30:50.901Z,1.54
2018-02-21T16:33:21.791Z,1.51
2018-02-21T16:35:53.640Z,1.67
2018-02-21T16:38:24.500Z,1.70
2018-02-21T16:40:55.479Z,1.51
2018-02-21T16:43:26.355Z,1.30
2018-02-21T16:45:57.314Z,1.24
2018-02-21T16:48:28.184Z,1.24
2018-02-21T16:50:59.091Z,1.06
2018-02-21T16:53:30.034Z,1.28
2018-02-21T16:56:00.970Z,1.37
2018-02-21T16:58:31.815Z,1.39
2018-02-21T17:01:02.800Z,1.20
2018-02-21T17:03:33.684Z,1.15
2018-02-21T17:06:05.518Z,0.93
2018-02-21T17:08:36.787Z,0.90
2018-02-21T17:11:11.166Z,0.87
2018-02-21T17:13:42.051Z,0.98
2018-02-21T17:16:12.938Z,0.83
2018-02-21T17:18:43.822Z,0.69
2018-02-21T17:21:14.790Z,0.91
2018-02-21T17:23:45.642Z,0.93
2018-02-21T17:26:16.510Z,0.89
2018-02-21T17:28:47.418Z,0.63
2018-02-21T17:31:18.285Z,0.83
2018-02-21T17:33:49.100Z,0.91
2018-02-21T17:36:19.997Z,0.82
2018-02-21T17:38:50.918Z,0.49
2018-02-21T17:41:31.722Z,0.55
2018-02-21T17:44:02.626Z,0.42
2018-02-21T17:46:33.529Z,0.47
2018-02-21T17:49:04.433Z,0.43
2018-02-21T17:51:35.342Z,0.36
2018-02-21T17:54:06.227Z,0.10
2018-02-21T17:56:37.117Z,-0.04
2018-02-21T17:59:08.012Z,-0.02
2018-02-21T18:01:38.911Z,0.03
2018-02-21T18:04:09.794Z,0.14
2018-02-21T18:06:40.725Z,0.28
2018-02-21T18:09:11.564Z,0.23
2018-02-21T18:11:42.514Z,0.21
2018-02-21T18:14:13.373Z,0.24
2018-02-21T18:16:44.276Z,0.15
2018-02-21T18:19:17.136Z,0.27
2018-02-21T18:21:48.763Z,0.22
2018-02-21T18:24:21.865Z,0.11
2018-02-21T18:26:56.366Z,0.07
2018-02-21T18:29:29.262Z,0.07
2018-02-21T18:32:00.210Z,-0.03
2018-02-21T18:34:33.136Z,0.02
2018-02-21T18:37:04.056Z,0.10
2018-02-21T18:39:34.869Z,-0.03
2018-02-21T18:42:05.747Z,0.18
2018-02-21T18:44:36.684Z,0.05
2018-02-21T18:47:07.656Z,0.16
2018-02-21T18:49:38.505Z,0.07
2018-02-21T18:52:09.318Z,-0.13
2018-02-21T18:54:40.136Z,-0.24
2018-02-21T18:57:10.959Z,-0.14
2018-02-21T18:59:41.800Z,-0.19
2018-02-21T19:02:12.638Z,-0.30
2018-02-21T19:04:43.457Z,-0.26
2018-02-21T19:07:14.367Z,-0.28
2018-02-21T19:09:45.216Z,-0.47
2018-02-21T19:12:16.072Z,-0.57
2018-02-21T19:14:46.896Z,-0.30
2018-02-21T19:17:18.765Z,-0.31
2018-02-21T19:19:49.612Z,-0.40
2018-02-21T19:22:20.460Z,-0.28
2018-02-21T19:24:52.259Z,-0.25
2018-02-21T19:27:23.073Z,-0.25
2018-02-21T19:29:53.881Z,-0.20
2018-02-21T19:32:24.688Z,-0.38
2018-02-21T19:34:55.486Z,-0.26
2018-02-21T19:37:26.339Z,-0.38
2018-02-21T19:39:57.189Z,-0.28
2018-02-21T19:42:28.010Z,-0.32
2018-02-21T19:44:58.825Z,-0.37
2018-02-21T19:47:29.747Z,-0.54
2018-02-21T19:50:00.577Z,-0.52
2018-02-21T19:52:31.407Z,-0.35
2018-02-21T19:55:02.294Z,-0.37
2018-02-21T19:57:33.124Z,-0.31
2018-02-21T20:00:03.961Z,-0.41
2018-02-21T20:02:34.823Z,-0.43
2018-02-21T20:05:05.731Z,-0.50
2018-02-21T20:07:36.633Z,-0.46
2018-02-21T20:10:07.405Z,-0.32
2018-02-21T20:12:38.271Z,-0.39
2018-02-21T20:15:09.098Z,-0.57
2018-02-21T20:17:39.988Z,-0.63
2018-02-21T20:20:10.863Z,-0.71
2018-02-21T20:22:41.824Z,-0.82
2018-02-21T20:25:12.625Z,-0.66
2018-02-21T20:27:43.482Z,-0.52
2018-02-21T20:30:14.373Z,-0.74
2018-02-21T20:32:45.255Z,-0.86
2018-02-21T20:35:16.154Z,-0.79
2018-02-21T20:37:47.048Z,-0.86
2018-02-21T20:40:17.960Z,-1.06
2018-02-21T20:42:48.851Z,-1.43
2018-02-21T20:45:20.722Z,-1.31
2018-02-21T20:47:51.558Z,-1.21
2018-02-21T20:50:22.394Z,-1.34
2018-02-21T20:52:54.293Z,-1.18
2018-02-21T20:55:25.131Z,-1.36
2018-02-21T20:57:55.981Z,-1.22
2018-02-21T21:00:26.816Z,-1.14
2018-02-21T21:02:57.692Z,-1.28
2018-02-21T21:05:28.746Z,-1.33
2018-02-21T21:07:59.618Z,-1.17
2018-02-21T21:10:30.474Z,-1.17
2018-02-21T21:13:01.381Z,-1.13
2018-02-21T21:15:33.455Z,-1.08
2018-02-21T21:18:04.321Z,-1.21
2018-02-21T21:20:35.109Z,-1.34
2018-02-21T21:23:05.980Z,-1.52
2018-02-21T21:25:36.869Z,-1.60
2018-02-21T21:28:07.780Z,-1.33
2018-02-21T21:30:38.595Z,-1.28
2018-02-21T21:33:09.529Z,-1.30
2018-02-21T21:35:40.454Z,-1.60
2018-02-21T21:38:11.345Z,-1.70
2018-02-21T21:40:42.226Z,-1.44
2018-02-21T21:43:13.122Z,-1.56
2018-02-21T21:45:44.007Z,-1.72
2018-02-21T21:48:14.863Z,-1.59
2018-02-21T21:50:45.722Z,-1.64
2018-02-21T21:53:16.531Z,-1.63
2018-02-21T21:55:47.398Z,-1.66
2018-02-21T21:58:18.384Z,-1.63
2018-02-21T22:00:49.246Z,-2.01
2018-02-21T22:03:20.075Z,-1.44
2018-02-21T22:05:50.962Z,-1.53
2018-02-21T22:08:21.822Z,-1.59
2018-02-21T22:10:52.706Z,-1.78
2018-02-21T22:13:23.667Z,-2.01
2018-02-21T22:15:56.558Z,-2.06
2018-02-21T22:18:27.398Z,-2.22
2018-02-21T22:20:58.237Z,-2.27
2018-02-21T22:23:29.097Z,-2.30
2018-02-21T22:25:59.909Z,-2.27
2018-02-21T22:28:30.801Z,-2.01
2018-02-21T22:31:02.698Z,-2.10
2018-02-21T22:33:33.563Z,-2.22
2018-02-21T22:36:04.546Z,-2.31
2018-02-21T22:38:35.377Z,-2.35
2018-02-21T22:41:06.204Z,-2.37
2018-02-21T22:43:37.013Z,-2.34
2018-02-21T22:46:07.757Z,-2.44
2018-02-21T22:48:38.551Z,-2.50
2018-02-21T22:51:09.302Z,-2.39
2018-02-21T22:53:40.057Z,-2.28
2018-02-21T22:56:10.821Z,-2.19
2018-02-21T22:58:41.591Z,-2.05
2018-02-21T23:01:12.358Z,-2.11
2018-02-21T23:03:43.165Z,-2.24
2018-02-21T23:06:13.920Z,-2.29
2018-02-21T23:08:44.681Z,-2.41
2018-02-21T23:11:17.506Z,-2.49
2018-02-21T23:13:48.267Z,-2.49
2018-02-21T23:16:19.016Z,-2.57
2018-02-21T23:18:50.841Z,-2.57
2018-02-21T23:21:21.637Z,-2.32
2018-02-21T23:23:52.417Z,-2.37
2018-02-21T23:26:23.156Z,-2.59
2018-02-21T23:28:53.933Z,-2.58
2018-02-21T23:31:24.690Z,-2.57
2018-02-21T23:33:55.490Z,-2.73
2018-02-21T23:36:26.294Z,-2.63
2018-02-21T23:38:57.086Z,-2.33
2018-02-21T23:41:27.841Z,-2.39
2018-02-21T23:43:58.628Z,-2.58
2018-02-21T23:46:29.394Z,-2.47
2018-02-21T23:49:00.170Z,-2.58
2018-02-21T23:51:30.978Z,-2.55
2018-02-21T23:54:01.754Z,-2.48
2018-02-21T23:56:32.504Z,-2.42
2018-02-21T23:59:03.268Z,-2.36
